createdAt,value
2018-12-21T00:00:49.075Z,100931.44
2018-12-21T00:03:16.988Z,100919.67
2018-12-21T00:05:45.017Z,100929.45
2018-12-21T00:08:12.869Z,100916.33
2018-12-21T00:10:40.810Z,100923.88
2018-12-21T00:13:08.822Z,100919.73
2018-12-21T00:15:36.667Z,100918.61
2018-12-21T00:18:04.760Z,100917.33
2018-12-21T00:20:32.801Z,100920.27
2018-12-21T00:23:00.764Z,100912.86
2018-12-21T00:25:28.565Z,100915.34
2018-12-21T00:27:56.532Z,100908.69
2018-12-21T00:30:26.961Z,100908.39
2018-12-21T00:33:00.526Z,100907.20
2018-12-21T00:35:34.143Z,100904.77
2018-12-21T00:38:07.762Z,100902.91
2018-12-21T00:40:41.568Z,100902.53
2018-12-21T00:46:06.280Z,100906.51
2018-12-21T00:48:34.249Z,100905.47
2018-12-21T00:51:01.983Z,100903.50
2018-12-21T00:53:29.975Z,100897.02
2018-12-21T00:55:58.053Z,100902.83
2018-12-21T00:58:26.105Z,100897.10
2018-12-21T01:00:54.401Z,100905.41
2018-12-21T01:03:22.666Z,100904.19
2018-12-21T01:05:50.403Z,100908.09
2018-12-21T01:08:18.819Z,100906.58
2018-12-21T01:10:46.534Z,100906.28
2018-12-21T01:13:14.727Z,100918.80
2018-12-21T01:15:42.666Z,100909.84
2018-12-21T01:18:10.695Z,100917.00
2018-12-21T01:20:38.395Z,100920.91
2018-12-21T01:23:06.286Z,100919.80
2018-12-21T01:25:34.152Z,100919.48
2018-12-21T01:28:02.068Z,100907.86
2018-12-21T01:30:30.023Z,100910.06
2018-12-21T01:32:58.098Z,100911.72
2018-12-21T01:35:25.815Z,100907.34
2018-12-21T01:37:53.806Z,100904.70
2018-12-21T01:40:21.749Z,100902.20
2018-12-21T01:42:49.637Z,100897.09
2018-12-21T01:45:17.603Z,100898.50
2018-12-21T01:47:45.544Z,100899.61
2018-12-21T01:50:13.434Z,100900.98
2018-12-21T01:52:41.352Z,100896.33
2018-12-21T01:55:09.218Z,100894.42
2018-12-21T01:57:37.361Z,100875.69
2018-12-21T02:00:06.615Z,100888.81
2018-12-21T02:02:34.514Z,100887.58
2018-12-21T02:05:02.456Z,100877.20
2018-12-21T02:07:30.469Z,100872.63
2018-12-21T02:09:58.411Z,100874.84
2018-12-21T02:12:26.276Z,100880.03
2018-12-21T02:14:54.192Z,100871.89
2018-12-21T02:17:22.333Z,100872.82
2018-12-21T02:19:50.599Z,100865.20
2018-12-21T02:22:18.564Z,100869.05
2018-12-21T02:24:46.430Z,100863.38
2018-12-21T02:27:14.295Z,100870.98
2018-12-21T02:29:42.312Z,100872.42
2018-12-21T02:32:10.582Z,100862.66
2018-12-21T02:34:38.766Z,100871.11
2018-12-21T02:37:06.609Z,100864.84
2018-12-21T02:39:34.902Z,100867.09
2018-12-21T02:42:02.864Z,100861.45
2018-12-21T02:44:30.805Z,100865.53
2018-12-21T02:46:58.672Z,100864.17
2018-12-21T02:49:26.648Z,100868.25
2018-12-21T02:51:54.745Z,100864.23
2018-12-21T02:54:22.746Z,100869.53
2018-12-21T02:56:50.585Z,100863.52
2018-12-21T02:59:18.526Z,100860.55
2018-12-21T03:01:46.619Z,100862.69
2018-12-21T03:04:14.629Z,100866.52
2018-12-21T03:06:43.123Z,100861.32
2018-12-21T03:09:11.088Z,100860.75
2018-12-21T03:11:39.110Z,100850.39
2018-12-21T03:14:07.144Z,100856.95
2018-12-21T03:16:35.109Z,100856.08
2018-12-21T03:19:03.026Z,100853.06
2018-12-21T03:21:31.188Z,100849.76
2018-12-21T03:23:59.132Z,100848.69
2018-12-21T03:26:26.979Z,100846.73
2018-12-21T03:28:55.401Z,100848.20
2018-12-21T03:31:23.430Z,100844.95
2018-12-21T03:33:51.546Z,100842.52
2018-12-21T03:36:19.586Z,100833.48
2018-12-21T03:38:47.526Z,100834.27
2018-12-21T03:41:15.516Z,100825.87
2018-12-21T03:43:43.482Z,100825.28
2018-12-21T03:46:11.627Z,100831.48
2018-12-21T03:48:39.770Z,100827.75
2018-12-21T03:51:07.805Z,100823.19
2018-12-21T03:53:35.910Z,100813.67
2018-12-21T03:56:03.960Z,100809.34
2018-12-21T03:58:33.079Z,100809.25
2018-12-21T04:01:01.117Z,100801.14
2018-12-21T04:03:29.058Z,100808.23
2018-12-21T04:05:57.048Z,100804.73
2018-12-21T04:08:25.157Z,100801.18
2018-12-21T04:10:53.229Z,100796.86
2018-12-21T04:13:21.300Z,100795.78
2018-12-21T04:15:49.013Z,100798.51
2018-12-21T04:18:17.041Z,100796.03
2018-12-21T04:20:44.992Z,100796.08
2018-12-21T04:23:13.034Z,100790.34
2018-12-21T04:25:40.899Z,100794.72
2018-12-21T04:28:08.814Z,100797.15
2018-12-21T04:30:36.756Z,100792.82
2018-12-21T04:33:04.857Z,100790.10
2018-12-21T04:35:32.586Z,100796.36
2018-12-21T04:38:00.555Z,100789.81
2018-12-21T04:40:28.651Z,100794.72
2018-12-21T04:42:56.684Z,100790.06
2018-12-21T04:45:24.651Z,100790.88
2018-12-21T04:47:52.519Z,100790.55
2018-12-21T04:50:20.506Z,100789.23
2018-12-21T04:52:48.595Z,100784.66
2018-12-21T04:55:16.636Z,100784.08
2018-12-21T04:57:44.738Z,100784.08
2018-12-21T05:00:12.568Z,100776.45
2018-12-21T05:02:41.093Z,100772.99
2018-12-21T05:05:09.125Z,100775.97
2018-12-21T05:07:37.436Z,100774.92
2018-12-21T05:10:06.650Z,100764.79
2018-12-21T05:12:34.497Z,100772.41
2018-12-21T05:15:02.441Z,100768.87
2018-12-21T05:17:30.378Z,100763.22
2018-12-21T05:19:58.371Z,100762.64
2018-12-21T05:22:26.335Z,100764.00
2018-12-21T05:24:54.525Z,100763.43
2018-12-21T05:27:22.617Z,100761.28
2018-12-21T05:29:50.657Z,100761.33
2018-12-21T05:32:18.760Z,100756.13
2018-12-21T05:34:46.763Z,100756.13
2018-12-21T05:37:14.680Z,100756.38
2018-12-21T05:39:42.620Z,100753.16
2018-12-21T05:42:10.486Z,100760.22
2018-12-21T05:44:38.679Z,100756.67
2018-12-21T05:47:06.617Z,100749.86
2018-12-21T05:49:34.645Z,100741.38
2018-12-21T05:52:02.715Z,100742.23
2018-12-21T05:54:30.684Z,100733.25
2018-12-21T05:56:58.529Z,100731.61
2018-12-21T05:59:26.622Z,100726.45
2018-12-21T06:01:54.661Z,100722.63
2018-12-21T06:04:22.549Z,100719.69
2018-12-21T06:06:50.492Z,100708.22
2018-12-21T06:09:18.558Z,100711.52
2018-12-21T06:11:46.569Z,100706.91
2018-12-21T06:14:14.541Z,100705.55
2018-12-21T06:16:42.624Z,100698.99
2018-12-21T06:19:12.231Z,100695.20
2018-12-21T06:21:40.363Z,100694.13
2018-12-21T06:24:08.153Z,100679.16
2018-12-21T06:26:36.119Z,100674.28
2018-12-21T06:29:04.158Z,100669.92
2018-12-21T06:31:32.148Z,100661.47
2018-12-21T06:34:00.091Z,100655.78
2018-12-21T06:36:28.100Z,100650.33
2018-12-21T06:38:56.001Z,100649.80
2018-12-21T06:41:23.887Z,100659.60
2018-12-21T06:43:51.906Z,100655.23
2018-12-21T06:46:19.944Z,100660.97
2018-12-21T06:48:48.032Z,100663.40
2018-12-21T06:51:16.100Z,100660.14
2018-12-21T06:53:44.190Z,100651.69
2018-12-21T06:56:12.231Z,100642.17
2018-12-21T06:58:40.332Z,100634.01
2018-12-21T07:01:08.394Z,100635.66
2018-12-21T07:03:36.475Z,100637.55
2018-12-21T07:06:04.543Z,100632.36
2018-12-21T07:08:32.459Z,100630.72
2018-12-21T07:11:00.275Z,100629.61
2018-12-21T07:13:28.191Z,100631.48
2018-12-21T07:15:56.184Z,100626.58
2018-12-21T07:18:24.287Z,100618.67
2018-12-21T07:20:52.213Z,100621.92
2018-12-21T07:23:27.025Z,100615.63
2018-12-21T07:25:50.195Z,100613.73
2018-12-21T07:28:18.212Z,100616.70
2018-12-21T07:30:46.425Z,100597.85
2018-12-21T07:33:14.415Z,100609.63
2018-12-21T07:35:42.215Z,100612.05
2018-12-21T07:38:10.199Z,100603.33
2018-12-21T07:40:38.138Z,100609.63
2018-12-21T07:43:06.228Z,100603.61
2018-12-21T07:45:34.269Z,100599.78
2018-12-21T07:48:02.373Z,100594.41
2018-12-21T07:50:30.358Z,100595.48
2018-12-21T07:52:58.515Z,100594.66
2018-12-21T07:55:27.182Z,100591.41
2018-12-21T07:57:55.272Z,100582.20
2018-12-21T08:00:23.342Z,100578.38
2018-12-21T08:02:51.380Z,100572.91
2018-12-21T08:05:19.669Z,100572.91
2018-12-21T08:07:47.611Z,100569.92
2018-12-21T08:10:15.831Z,100578.38
2018-12-21T08:12:43.867Z,100571.31
2018-12-21T08:15:11.783Z,100564.52
2018-12-21T08:17:39.849Z,100566.13
2018-12-21T08:20:07.879Z,100562.05
2018-12-21T08:22:35.879Z,100560.44
2018-12-21T08:25:04.544Z,100557.17
2018-12-21T08:27:32.634Z,100551.73
2018-12-21T08:30:00.553Z,100543.32
2018-12-21T08:32:28.442Z,100544.39
2018-12-21T08:34:56.283Z,100541.13
2018-12-21T08:37:24.148Z,100543.06
2018-12-21T08:39:52.238Z,100538.98
2018-12-21T08:42:20.246Z,100528.09
2018-12-21T08:44:48.422Z,100522.66
2018-12-21T08:47:16.284Z,100525.94
2018-12-21T08:49:44.357Z,100522.68
2018-12-21T08:52:12.318Z,100519.67
2018-12-21T08:54:40.259Z,100519.70
2018-12-21T08:57:08.324Z,100508.53
2018-12-21T08:59:36.365Z,100510.48
2018-12-21T09:02:04.281Z,100505.86
2018-12-21T09:04:32.578Z,100507.80
2018-12-21T09:07:00.651Z,100507.00
2018-12-21T09:09:28.723Z,100504.30
2018-12-21T09:11:56.444Z,100505.38
2018-12-21T09:14:24.455Z,100498.58
2018-12-21T09:16:52.299Z,100491.23
2018-12-21T09:19:20.393Z,100489.36
2018-12-21T09:21:48.305Z,100482.56
2018-12-21T09:24:16.198Z,100471.69
2018-12-21T09:26:44.162Z,100468.13
2018-12-21T09:29:12.107Z,100469.77
2018-12-21T09:31:39.924Z,100455.62
2018-12-21T09:34:08.035Z,100454.28
2018-12-21T09:36:36.150Z,100446.94
2018-12-21T09:39:05.473Z,100443.11
2018-12-21T09:41:33.181Z,100449.92
2018-12-21T09:44:01.171Z,100436.59
2018-12-21T09:46:29.278Z,100433.03
2018-12-21T09:48:57.146Z,100419.41
2018-12-21T09:51:25.156Z,100421.33
2018-12-21T09:53:53.259Z,100429.23
2018-12-21T09:56:21.358Z,100415.08
2018-12-21T09:58:49.341Z,100419.41
2018-12-21T10:01:17.501Z,100405.80
2018-12-21T10:03:45.947Z,100398.72
2018-12-21T10:06:14.187Z,100396.80
2018-12-21T10:08:42.153Z,100394.63
2018-12-21T10:11:10.192Z,100385.64
2018-12-21T10:13:38.267Z,100371.46
2018-12-21T10:16:06.300Z,100369.27
2018-12-21T10:18:34.917Z,100357.02
2018-12-21T10:21:02.860Z,100350.47
2018-12-21T10:23:30.797Z,100347.75
2018-12-21T10:25:58.864Z,100345.02
2018-12-21T10:28:26.978Z,100335.75
2018-12-21T10:30:54.921Z,100336.84
2018-12-21T10:33:22.942Z,100328.37
2018-12-21T10:35:50.676Z,100311.78
2018-12-21T10:38:18.716Z,100303.30
2018-12-21T10:40:46.581Z,100298.95
2018-12-21T10:43:14.572Z,100297.81
2018-12-21T10:45:42.681Z,100278.77
2018-12-21T10:48:10.649Z,100282.83
2018-12-21T10:50:38.595Z,100260.50
2018-12-21T10:53:06.660Z,100260.19
2018-12-21T10:55:34.761Z,100256.09
2018-12-21T10:58:02.832Z,100255.28
2018-12-21T11:00:30.903Z,100246.28
2018-12-21T11:02:58.823Z,100232.91
2018-12-21T11:05:26.715Z,100228.23
2018-12-21T11:07:54.679Z,100221.12
2018-12-21T11:10:22.620Z,100215.12
2018-12-21T11:12:50.535Z,100216.18
2018-12-21T11:15:18.477Z,100198.97
2018-12-21T11:17:46.583Z,100193.79
2018-12-21T11:20:14.308Z,100186.66
2018-12-21T11:22:42.427Z,100177.11
2018-12-21T11:25:11.092Z,100169.72
2018-12-21T11:27:39.031Z,100169.17
2018-12-21T11:30:08.719Z,100153.08
2018-12-21T11:32:36.787Z,100146.84
2018-12-21T11:35:05.133Z,100145.21
2018-12-21T11:37:33.119Z,100138.97
2018-12-21T11:40:01.068Z,100133.76
2018-12-21T11:42:29.049Z,100129.44
2018-12-21T11:44:56.891Z,100114.20
2018-12-21T11:47:24.783Z,100104.16
2018-12-21T11:49:52.723Z,100102.02
2018-12-21T11:52:20.809Z,100085.16
2018-12-21T11:54:48.854Z,100084.02
2018-12-21T11:57:16.952Z,100079.85
2018-12-21T11:59:45.248Z,100072.58
2018-12-21T12:02:19.522Z,100064.36
2018-12-21T12:04:43.191Z,100067.08
2018-12-21T12:07:11.258Z,100055.63
2018-12-21T12:09:39.197Z,100054.85
2018-12-21T12:12:07.227Z,100052.76
2018-12-21T12:14:35.159Z,100055.71
2018-12-21T12:17:03.069Z,100054.59
2018-12-21T12:19:31.085Z,100049.98
2018-12-21T12:21:59.098Z,100049.73
2018-12-21T12:24:27.115Z,100036.36
2018-12-21T12:26:54.882Z,100038.03
2018-12-21T12:29:22.822Z,100030.05
2018-12-21T12:31:50.739Z,100025.47
2018-12-21T12:34:18.804Z,100023.06
2018-12-21T12:36:46.781Z,100019.23
2018-12-21T12:39:14.835Z,100017.88
2018-12-21T12:41:42.850Z,100017.09
2018-12-21T12:44:10.766Z,100006.47
2018-12-21T12:46:38.786Z,99995.61
2018-12-21T12:49:06.773Z,99983.90
2018-12-21T12:51:34.724Z,99972.73
2018-12-21T12:54:02.796Z,99977.39
2018-12-21T12:56:30.847Z,99970.63
2018-12-21T12:58:58.942Z,99964.09
2018-12-21T13:01:27.010Z,99957.83
2018-12-21T13:03:55.082Z,99952.38
2018-12-21T13:06:23.134Z,99941.48
2018-12-21T13:08:51.223Z,99937.95
2018-12-21T13:11:19.139Z,99927.05
2018-12-21T13:13:47.057Z,99927.63
2018-12-21T13:16:15.027Z,99912.38
2018-12-21T13:18:42.787Z,99911.28
2018-12-21T13:21:10.728Z,99893.56
2018-12-21T13:23:38.793Z,99888.30
2018-12-21T13:26:07.285Z,99878.81
2018-12-21T13:28:35.585Z,99870.64
2018-12-21T13:31:03.255Z,99866.33
2018-12-21T13:33:31.526Z,99853.58
2018-12-21T13:36:00.331Z,99849.50
2018-12-21T13:38:28.463Z,99841.81
2018-12-21T13:40:56.528Z,99835.27
2018-12-21T13:43:24.632Z,99835.01
2018-12-21T13:45:52.702Z,99829.02
2018-12-21T13:48:20.756Z,99822.75
2018-12-21T13:50:48.916Z,99801.08
2018-12-21T13:53:17.106Z,99823.34
2018-12-21T13:55:45.173Z,99818.13
2018-12-21T13:58:13.263Z,99810.27
2018-12-21T14:00:40.981Z,99810.81
2018-12-21T14:03:08.969Z,99802.36
2018-12-21T14:05:37.116Z,99799.38
2018-12-21T14:08:05.251Z,99793.38
2018-12-21T14:10:33.211Z,99789.28
2018-12-21T14:13:00.932Z,99783.52
2018-12-21T14:15:28.923Z,99784.65
2018-12-21T14:17:56.913Z,99784.61
2018-12-21T14:20:25.085Z,99779.20
2018-12-21T14:22:53.119Z,99760.36
2018-12-21T14:25:28.596Z,99758.25
2018-12-21T14:27:51.347Z,99742.98
2018-12-21T14:30:19.316Z,99741.84
2018-12-21T14:32:47.333Z,99733.67
2018-12-21T14:35:15.423Z,99732.36
2018-12-21T14:37:43.615Z,99729.38
2018-12-21T14:40:11.685Z,99726.63
2018-12-21T14:42:39.744Z,99720.66
2018-12-21T14:45:08.039Z,99714.94
2018-12-21T14:47:36.124Z,99710.52
2018-12-21T14:50:05.896Z,99699.88
2018-12-21T14:52:33.757Z,99687.08
2018-12-21T14:55:01.771Z,99672.98
2018-12-21T14:57:30.139Z,99668.13
2018-12-21T14:59:58.004Z,99672.77
2018-12-21T15:02:25.820Z,99666.19
2018-12-21T15:04:53.685Z,99662.09
2018-12-21T15:07:21.716Z,99656.91
2018-12-21T15:09:49.648Z,99647.12
2018-12-21T15:12:17.633Z,99638.65
2018-12-21T15:14:45.578Z,99630.78
2018-12-21T15:17:13.592Z,99632.94
2018-12-21T15:19:41.663Z,99627.48
2018-12-21T15:22:09.621Z,99620.94
2018-12-21T15:24:37.601Z,99603.54
2018-12-21T15:27:05.728Z,99600.78
2018-12-21T15:29:33.721Z,99599.36
2018-12-21T15:32:01.659Z,99598.84
2018-12-21T15:34:29.476Z,99591.80
2018-12-21T15:36:57.515Z,99589.81
2018-12-21T15:39:25.582Z,99588.45
2018-12-21T15:41:53.483Z,99584.86
2018-12-21T15:44:21.465Z,99577.57
2018-12-21T15:46:49.423Z,99571.29
2018-12-21T15:49:17.395Z,99558.98
2018-12-21T15:51:45.485Z,99554.31
2018-12-21T15:54:13.477Z,99543.89
2018-12-21T15:56:41.503Z,99547.92
2018-12-21T15:59:09.485Z,99543.28
2018-12-21T16:01:37.441Z,99534.84
2018-12-21T16:04:05.438Z,99528.03
2018-12-21T16:06:35.613Z,99532.59
2018-12-21T16:09:04.647Z,99519.55
2018-12-21T16:11:32.561Z,99518.67
2018-12-21T16:14:00.628Z,99518.88
2018-12-21T16:16:28.592Z,99507.20
2018-12-21T16:18:56.602Z,99513.75
2018-12-21T16:21:24.323Z,99505.78
2018-12-21T16:23:52.333Z,99508.16
2018-12-21T16:26:20.406Z,99483.25
2018-12-21T16:28:48.478Z,99497.80
2018-12-21T16:31:16.711Z,99495.66
2018-12-21T16:33:44.702Z,99487.95
2018-12-21T16:36:12.699Z,99478.79
2018-12-21T16:38:40.611Z,99475.77
2018-12-21T16:41:08.473Z,99465.10
2018-12-21T16:43:36.415Z,99456.90
2018-12-21T16:46:04.371Z,99439.11
2018-12-21T16:48:32.270Z,99458.27
2018-12-21T16:51:00.506Z,99448.59
2018-12-21T16:53:28.503Z,99449.47
2018-12-21T16:55:56.443Z,99442.92
2018-12-21T16:58:24.515Z,99436.39
2018-12-21T17:00:52.349Z,99438.80
2018-12-21T17:03:20.417Z,99430.30
2018-12-21T17:05:48.522Z,99422.77
2018-12-21T17:08:16.572Z,99420.82
2018-12-21T17:10:44.712Z,99413.48
2018-12-21T17:13:12.629Z,99399.21
2018-12-21T17:15:40.443Z,99397.91
2018-12-21T17:18:08.435Z,99398.11
2018-12-21T17:20:36.525Z,99398.37
2018-12-21T17:23:04.591Z,99386.84
2018-12-21T17:25:33.008Z,99377.30
2018-12-21T17:28:01.022Z,99374.84
2018-12-21T17:30:29.014Z,99378.24
2018-12-21T17:32:57.079Z,99372.20
2018-12-21T17:35:25.173Z,99375.41
2018-12-21T17:37:53.244Z,99378.52
2018-12-21T17:40:21.724Z,99363.12
2018-12-21T17:42:49.797Z,99353.77
2018-12-21T17:45:17.510Z,99345.98
2018-12-21T17:47:45.573Z,99357.59
2018-12-21T17:50:13.587Z,99365.30
2018-12-21T17:52:41.531Z,99354.16
2018-12-21T17:55:09.519Z,99366.51
2018-12-21T17:57:37.611Z,99360.38
2018-12-21T18:00:09.551Z,99347.30
2018-12-21T18:02:37.616Z,99350.16
2018-12-21T18:05:06.213Z,99348.78
2018-12-21T18:07:34.323Z,99350.28
2018-12-21T18:10:02.313Z,99358.09
2018-12-21T18:12:30.503Z,99359.80
2018-12-21T18:14:58.594Z,99346.58
2018-12-21T18:17:27.484Z,99353.66
2018-12-21T18:19:55.550Z,99348.94
2018-12-21T18:22:23.852Z,99357.97
2018-12-21T18:24:51.581Z,99354.42
2018-12-21T18:27:19.549Z,99349.64
2018-12-21T18:29:47.657Z,99344.44
2018-12-21T18:32:17.501Z,99348.62
2018-12-21T18:34:45.436Z,99339.02
2018-12-21T18:37:13.508Z,99346.91
2018-12-21T18:39:41.425Z,99339.52
2018-12-21T18:42:09.341Z,99347.89
2018-12-21T18:44:37.281Z,99347.93
2018-12-21T18:47:05.021Z,99344.59
2018-12-21T18:49:32.938Z,99348.35
2018-12-21T18:52:00.752Z,99350.41
2018-12-21T18:54:28.777Z,99352.45
2018-12-21T18:56:56.785Z,99353.49
2018-12-21T18:59:24.899Z,99357.65
2018-12-21T19:01:52.988Z,99352.72
2018-12-21T19:04:20.957Z,99353.86
2018-12-21T19:06:48.898Z,99352.22
2018-12-21T19:09:17.001Z,99351.16
2018-12-21T19:11:45.052Z,99360.08
2018-12-21T19:14:13.143Z,99359.47
2018-12-21T19:16:41.219Z,99355.11
2018-12-21T19:19:09.227Z,99355.81
2018-12-21T19:21:37.371Z,99358.30
2018-12-21T19:24:06.155Z,99359.52
2018-12-21T19:26:33.896Z,99352.27
2018-12-21T19:29:02.335Z,99348.67
2018-12-21T19:31:30.428Z,99360.14
2018-12-21T19:33:58.517Z,99352.80
2018-12-21T19:36:26.633Z,99352.69
2018-12-21T19:38:54.748Z,99358.96
2018-12-21T19:41:22.644Z,99360.34
2018-12-21T19:43:50.715Z,99362.81
2018-12-21T19:46:18.570Z,99359.23
2018-12-21T19:48:46.635Z,99359.73
2018-12-21T19:51:14.701Z,99362.50
2018-12-21T19:53:42.795Z,99347.55
2018-12-21T19:56:12.831Z,99365.84
2018-12-21T19:58:40.823Z,99360.97
2018-12-21T20:01:08.689Z,99355.45
2018-12-21T20:03:36.705Z,99351.71
2018-12-21T20:06:04.793Z,99346.32
2018-12-21T20:08:32.810Z,99349.08
2018-12-21T20:11:00.938Z,99347.00
2018-12-21T20:13:28.969Z,99343.45
2018-12-21T20:15:57.061Z,99344.20
2018-12-21T20:18:25.121Z,99345.78
2018-12-21T20:20:53.188Z,99344.81
2018-12-21T20:23:21.127Z,99362.03
2018-12-21T20:25:49.118Z,99358.09
2018-12-21T20:28:17.231Z,99345.78
2018-12-21T20:30:45.275Z,99346.23
2018-12-21T20:33:13.214Z,99345.42
2018-12-21T20:35:41.081Z,99351.78
2018-12-21T20:38:09.102Z,99351.97
2018-12-21T20:40:37.012Z,99349.09
2018-12-21T20:43:05.511Z,99356.89
2018-12-21T20:45:33.393Z,99365.85
2018-12-21T20:48:01.386Z,99363.92
2018-12-21T20:50:29.463Z,99370.46
2018-12-21T20:52:57.439Z,99369.96
2018-12-21T20:55:25.580Z,99378.58
2018-12-21T20:57:53.939Z,99381.31
2018-12-21T21:00:21.786Z,99378.17
2018-12-21T21:02:49.777Z,99382.06
2018-12-21T21:05:17.886Z,99380.38
2018-12-21T21:07:45.883Z,99377.73
2018-12-21T21:10:13.837Z,99385.47
2018-12-21T21:12:42.065Z,99385.87
2018-12-21T21:15:11.871Z,99388.56
2018-12-21T21:17:39.880Z,99397.14
2018-12-21T21:20:13.261Z,99398.78
2018-12-21T21:22:41.500Z,99400.56
2018-12-21T21:25:09.593Z,99403.84
2018-12-21T21:27:37.556Z,99404.24
2018-12-21T21:30:12.602Z,99400.00
2018-12-21T21:32:40.488Z,99404.73
2018-12-21T21:35:08.666Z,99409.00
2018-12-21T21:37:36.595Z,99406.26
2018-12-21T21:40:09.223Z,99409.71
2018-12-21T21:42:37.150Z,99427.46
2018-12-21T21:45:07.876Z,99409.39
2018-12-21T21:47:35.830Z,99420.58
2018-12-21T21:50:06.315Z,99428.24
2018-12-21T21:52:34.236Z,99423.33
2018-12-21T21:55:02.232Z,99423.05
2018-12-21T21:57:38.837Z,99425.65
2018-12-21T22:00:00.466Z,99436.79
2018-12-21T22:02:28.417Z,99432.11
2018-12-21T22:04:56.564Z,99426.31
2018-12-21T22:07:25.029Z,99424.70
2018-12-21T22:09:53.172Z,99420.75
2018-12-21T22:12:21.308Z,99439.84
2018-12-21T22:14:49.351Z,99440.67
2018-12-21T22:17:17.448Z,99416.81
2018-12-21T22:19:45.420Z,99417.39
2018-12-21T22:22:13.448Z,99419.17
2018-12-21T22:24:41.459Z,99420.78
2018-12-21T22:27:09.504Z,99436.57
2018-12-21T22:29:37.602Z,99437.38
2018-12-21T22:32:05.586Z,99441.26
2018-12-21T22:34:34.051Z,99446.97
2018-12-21T22:37:01.790Z,99436.82
2018-12-21T22:39:29.957Z,99451.24
2018-12-21T22:41:58.058Z,99449.56
2018-12-21T22:44:25.988Z,99441.66
2018-12-21T22:46:53.853Z,99437.89
2018-12-21T22:49:22.361Z,99431.86
2018-12-21T22:51:50.733Z,99445.05
2018-12-21T22:54:18.799Z,99451.48
2018-12-21T22:56:48.943Z,99457.05
2018-12-21T22:59:17.016Z,99454.63
2018-12-21T23:01:45.059Z,99445.30
2018-12-21T23:04:13.157Z,99455.75
2018-12-21T23:06:41.638Z,99469.38
2018-12-21T23:09:09.504Z,99473.48
2018-12-21T23:11:37.332Z,99479.83
2018-12-21T23:14:05.601Z,99473.39
2018-12-21T23:16:33.717Z,99494.89
2018-12-21T23:19:01.580Z,99477.25
2018-12-21T23:21:29.519Z,99480.64
2018-12-21T23:23:57.419Z,99471.61
2018-12-21T23:26:25.550Z,99490.73
2018-12-21T23:28:53.841Z,99499.25
2018-12-21T23:31:21.806Z,99496.98
2018-12-21T23:33:49.872Z,99491.03
2018-12-21T23:36:17.963Z,99505.80
2018-12-21T23:38:47.055Z,99507.67
2018-12-21T23:41:15.142Z,99505.48
2018-12-21T23:43:43.387Z,99496.98
2018-12-21T23:46:11.721Z,99508.38
2018-12-21T23:48:39.690Z,99503.34
2018-12-21T23:51:07.641Z,99512.53
2018-12-21T23:53:35.667Z,99531.95
2018-12-21T23:56:11.800Z,99528.17
2018-12-21T23:58:33.878Z,99520.52
